Time,TemperatureF,DewpointF,PressureIn,WindDirection,WindDirectionDegrees,WindSpeedMPH,WindSpeedGustMPH,Humidity,HourlyPrecipIn,Conditions,Clouds,dailyrainin,SoftwareType,DateUTC
2013-05-22 00:01:00,61.5,58.2,29.87,West,270,0.0,0.0,89,0.00,,,0.00,WUHU216HW,2013-05-22 04:01:00,
2013-05-22 00:03:00,61.5,58.2,29.87,WSW,248,0.0,0.0,89,0.00,,,0.00,WUHU216HW,2013-05-22 04:03:00,
2013-05-22 00:08:00,61.3,58.1,29.87,WSW,248,0.0,0.0,89,0.00,,,0.00,WUHU216HW,2013-05-22 04:08:00,
2013-05-22 00:13:00,61.3,58.4,29.87,West,270,0.0,0.0,90,0.00,,,0.00,WUHU216HW,2013-05-22 04:13:00,
2013-05-22 00:18:00,61.3,58.4,29.88,WSW,248,0.0,0.0,90,0.00,,,0.00,WUHU216HW,2013-05-22 04:18:00,
2013-05-22 00:23:00,61.3,58.4,29.88,West,270,0.0,0.0,90,0.00,,,0.00,WUHU216HW,2013-05-22 04:23:00,
2013-05-22 00:28:00,61.3,58.4,29.88,West,270,0.0,0.0,90,0.00,,,0.00,WUHU216HW,2013-05-22 04:28:00,
2013-05-22 00:33:00,61.1,58.2,29.88,WNW,293,0.0,0.0,90,0.00,,,0.00,WUHU216HW,2013-05-22 04:33:00,
2013-05-22 00:38:00,60.9,58.3,29.88,West,270,0.0,0.0,91,0.00,,,0.00,WUHU216HW,2013-05-22 04:38:00,
2013-05-22 00:44:00,60.9,58.3,29.87,West,270,0.0,0.0,91,0.00,,,0.00,WUHU216HW,2013-05-22 04:44:00,
2013-05-22 00:49:00,60.9,58.3,29.88,West,270,0.0,0.0,91,0.00,,,0.00,WUHU216HW,2013-05-22 04:49:00,
2013-05-22 00:54:00,60.8,57.9,29.88,West,270,0.0,0.0,90,0.00,,,0.00,WUHU216HW,2013-05-22 04:54:00,
2013-05-22 00:59:00,60.6,57.7,29.88,West,270,0.0,0.0,90,0.00,,,0.00,WUHU216HW,2013-05-22 04:59:00,
2013-05-22 01:04:00,60.4,57.5,29.87,West,270,0.0,0.0,90,0.00,,,0.00,WUHU216HW,2013-05-22 05:04:00,
2013-05-22 01:09:00,60.4,57.5,29.88,West,270,0.0,0.0,90,0.00,,,0.00,WUHU216HW,2013-05-22 05:09:00,
2013-05-22 01:14:00,60.4,57.8,29.87,West,270,0.0,0.0,91,0.00,,,0.00,WUHU216HW,2013-05-22 05:14:00,
2013-05-22 01:19:00,60.4,57.8,29.87,West,270,0.0,0.0,91,0.00,,,0.00,WUHU216HW,2013-05-22 05:19:00,
2013-05-22 01:24:00,60.4,57.8,29.87,NW,315,0.0,0.0,91,0.00,,,0.00,WUHU216HW,2013-05-22 05:24:00,
2013-05-22 01:30:00,59.7,56.8,29.88,North,0,5.8,5.8,90,0.00,,,0.00,WUHU216HW,2013-05-22 05:30:00,
2013-05-22 01:35:00,57.0,53.4,29.88,North,0,8.9,9.1,88,0.00,,,0.00,WUHU216HW,2013-05-22 05:35:00,
2013-05-22 01:40:00,55.9,52.7,29.88,North,0,12.7,12.7,89,0.00,,,0.00,WUHU216HW,2013-05-22 05:40:00,
2013-05-22 01:45:00,54.1,50.9,29.88,NNE,23,11.1,13.1,89,0.00,,,0.00,WUHU216HW,2013-05-22 05:45:00,
2013-05-22 01:50:00,53.6,50.7,29.89,NNE,23,8.0,13.1,90,0.00,,,0.00,WUHU216HW,2013-05-22 05:50:00,
2013-05-22 01:55:00,53.2,50.6,29.88,NNE,23,7.6,11.6,91,0.00,,,0.00,WUHU216HW,2013-05-22 05:55:00,
2013-05-22 02:00:00,53.2,50.9,29.89,NNE,23,9.8,11.6,92,0.00,,,0.00,WUHU216HW,2013-05-22 06:00:00,
2013-05-22 02:05:00,52.8,50.5,29.88,NNE,23,9.1,9.8,92,0.00,,,0.00,WUHU216HW,2013-05-22 06:05:00,
2013-05-22 02:10:00,52.8,50.1,29.88,NNE,23,8.2,9.8,91,0.00,,,0.00,WUHU216HW,2013-05-22 06:10:00,
2013-05-22 02:16:00,52.7,50.3,29.89,NE,45,3.8,8.9,92,0.00,,,0.00,WUHU216HW,2013-05-22 06:16:00,
2013-05-22 02:21:00,52.7,50.3,29.88,NNE,23,6.7,8.2,92,0.00,,,0.00,WUHU216HW,2013-05-22 06:21:00,
2013-05-22 02:26:00,52.5,50.0,29.89,NNE,23,8.5,8.5,92,0.00,,,0.00,WUHU216HW,2013-05-22 06:26:00,
2013-05-22 02:31:00,52.3,50.0,29.88,NNE,23,8.9,8.9,92,0.00,,,0.00,WUHU216HW,2013-05-22 06:31:00,
2013-05-22 02:36:00,52.3,50.0,29.89,NNE,23,5.1,8.9,92,0.00,,,0.00,WUHU216HW,2013-05-22 06:36:00,
2013-05-22 02:41:00,52.3,50.0,29.89,NNE,23,2.2,5.1,92,0.00,,,0.00,WUHU216HW,2013-05-22 06:41:00,
2013-05-22 02:46:00,52.3,50.0,29.89,North,0,0.0,5.1,92,0.00,,,0.00,WUHU216HW,2013-05-22 06:46:00,
2013-05-22 02:51:00,52.1,49.8,29.89,NNE,23,0.0,4.2,92,0.00,,,0.00,WUHU216HW,2013-05-22 06:51:00,
2013-05-22 02:56:00,51.9,49.6,29.88,NNE,23,0.0,0.0,92,0.00,,,0.00,WUHU216HW,2013-05-22 06:56:00,
2013-05-22 03:01:00,51.9,49.6,29.88,NNE,23,0.0,0.0,92,0.00,,,0.00,WUHU216HW,2013-05-22 07:01:00,
2013-05-22 03:06:00,51.9,49.6,29.88,ENE,68,3.1,3.1,92,0.00,,,0.00,WUHU216HW,2013-05-22 07:06:00,
2013-05-22 03:11:00,52.1,49.8,29.88,NE,45,2.4,3.1,92,0.00,,,0.00,WUHU216HW,2013-05-22 07:11:00,
2013-05-22 03:17:00,52.3,50.0,29.88,NE,45,2.4,3.1,92,0.00,,,0.00,WUHU216HW,2013-05-22 07:17:00,
2013-05-22 03:22:00,52.1,49.8,29.88,ENE,68,1.5,2.4,92,0.00,,,0.00,WUHU216HW,2013-05-22 07:22:00,
2013-05-22 03:27:00,51.9,49.6,29.88,ENE,68,2.2,3.1,92,0.00,,,0.00,WUHU216HW,2013-05-22 07:27:00,
2013-05-22 03:32:00,51.8,49.4,29.88,ENE,68,0.0,3.1,92,0.00,,,0.00,WUHU216HW,2013-05-22 07:32:00,
2013-05-22 03:37:00,51.6,49.3,29.88,East,90,0.0,0.0,92,0.00,,,0.00,WUHU216HW,2013-05-22 07:37:00,
2013-05-22 03:42:00,51.4,49.1,29.88,East,90,0.0,0.0,92,0.00,,,0.00,WUHU216HW,2013-05-22 07:42:00,
2013-05-22 03:47:00,51.0,48.7,29.88,ESE,113,0.0,0.0,92,0.00,,,0.00,WUHU216HW,2013-05-22 07:47:00,
2013-05-22 03:52:00,51.0,48.7,29.88,SE,135,0.0,0.0,92,0.00,,,0.00,WUHU216HW,2013-05-22 07:52:00,
2013-05-22 03:57:00,51.0,48.7,29.88,SE,135,0.0,0.0,92,0.00,,,0.00,WUHU216HW,2013-05-22 07:57:00,
2013-05-22 04:03:00,51.0,48.4,29.88,SE,135,0.0,0.0,91,0.00,,,0.00,WUHU216HW,2013-05-22 08:03:00,
2013-05-22 04:08:00,51.0,48.4,29.88,SE,135,0.0,0.0,91,0.00,,,0.00,WUHU216HW,2013-05-22 08:08:00,
2013-05-22 04:13:00,50.9,48.3,29.88,NNE,23,0.0,0.0,91,0.00,,,0.00,WUHU216HW,2013-05-22 08:13:00,
2013-05-22 04:18:00,51.0,48.4,29.88,NNE,23,6.7,6.7,91,0.00,,,0.00,WUHU216HW,2013-05-22 08:18:00,
2013-05-22 04:23:00,51.2,48.6,29.89,NNE,23,6.2,6.7,91,0.00,,,0.00,WUHU216HW,2013-05-22 08:23:00,
2013-05-22 04:28:00,51.2,48.6,29.89,NNE,23,6.9,7.3,91,0.00,,,0.00,WUHU216HW,2013-05-22 08:28:00,
2013-05-22 04:33:00,51.2,48.6,29.88,NNE,23,8.9,8.9,91,0.00,,,0.00,WUHU216HW,2013-05-22 08:33:00,
2013-05-22 04:38:00,51.0,48.4,29.88,NNE,23,8.7,9.1,91,0.00,,,0.00,WUHU216HW,2013-05-22 08:38:00,
2013-05-22 04:43:00,50.9,48.3,29.88,NE,45,8.9,9.1,91,0.00,,,0.00,WUHU216HW,2013-05-22 08:43:00,
2013-05-22 04:48:00,50.7,48.1,29.88,NE,45,7.3,8.9,91,0.00,,,0.00,WUHU216HW,2013-05-22 08:48:00,
2013-05-22 04:53:00,50.7,48.1,29.88,NE,45,7.6,8.9,91,0.00,,,0.00,WUHU216HW,2013-05-22 08:53:00,
2013-05-22 04:59:00,50.5,47.9,29.88,NNE,23,6.9,7.6,91,0.00,,,0.00,WUHU216HW,2013-05-22 08:59:00,
2013-05-22 05:04:00,50.5,47.9,29.89,NNE,23,4.6,7.6,91,0.00,,,0.00,WUHU216HW,2013-05-22 09:04:00,
2013-05-22 05:09:00,50.3,47.7,29.89,NNE,23,4.6,6.9,91,0.00,,,0.00,WUHU216HW,2013-05-22 09:09:00,
2013-05-22 05:14:00,50.3,47.7,29.88,NNE,23,5.5,6.2,91,0.00,,,0.00,WUHU216HW,2013-05-22 09:14:00,
2013-05-22 05:19:00,50.3,47.7,29.88,NNE,23,6.0,6.0,91,0.00,,,0.00,WUHU216HW,2013-05-22 09:19:00,
2013-05-22 05:24:00,50.3,47.7,29.88,NE,45,6.9,6.9,91,0.00,,,0.00,WUHU216HW,2013-05-22 09:24:00,
2013-05-22 05:29:00,50.3,47.7,29.88,NE,45,4.4,6.9,91,0.00,,,0.00,WUHU216HW,2013-05-22 09:29:00,
2013-05-22 05:34:00,50.3,47.7,29.88,NNE,23,5.8,6.9,91,0.00,,,0.00,WUHU216HW,2013-05-22 09:34:00,
2013-05-22 05:39:00,50.3,47.7,29.88,NNE,23,8.9,8.9,91,0.00,,,0.00,WUHU216HW,2013-05-22 09:39:00,
2013-05-22 05:45:00,50.5,48.2,29.87,NNE,23,3.8,8.9,92,0.00,,,0.00,WUHU216HW,2013-05-22 09:45:00,
2013-05-22 05:50:00,50.5,48.2,29.87,NNE,23,7.1,7.1,92,0.00,,,0.00,WUHU216HW,2013-05-22 09:50:00,
2013-05-22 05:55:00,50.5,48.2,29.87,NNE,23,7.3,7.3,92,0.00,,,0.00,WUHU216HW,2013-05-22 09:55:00,
2013-05-22 06:00:00,50.7,48.4,29.87,NNE,23,6.7,7.3,92,0.00,,,0.00,WUHU216HW,2013-05-22 10:00:00,
2013-05-22 06:05:00,50.7,48.4,29.86,NNE,23,5.3,6.7,92,0.00,,,0.00,WUHU216HW,2013-05-22 10:05:00,
2013-05-22 06:10:00,50.7,48.4,29.87,NNE,23,4.2,6.7,92,0.00,,,0.00,WUHU216HW,2013-05-22 10:10:00,
2013-05-22 06:15:00,50.7,48.4,29.87,NNE,23,2.6,6.0,92,0.00,,,0.00,WUHU216HW,2013-05-22 10:15:00,
2013-05-22 06:20:00,50.9,48.5,29.87,North,0,4.2,6.0,92,0.00,,,0.00,WUHU216HW,2013-05-22 10:20:00,
2013-05-22 06:25:00,50.9,48.5,29.88,North,0,0.0,4.2,92,0.00,,,0.00,WUHU216HW,2013-05-22 10:25:00,
2013-05-22 06:30:00,50.9,48.5,29.88,North,0,0.0,3.3,92,0.00,,,0.00,WUHU216HW,2013-05-22 10:30:00,
2013-05-22 06:36:00,50.9,48.5,29.88,North,0,0.0,0.0,92,0.00,,,0.00,WUHU216HW,2013-05-22 10:36:00,
2013-05-22 06:41:00,50.9,48.5,29.88,North,0,0.0,0.0,92,0.00,,,0.00,WUHU216HW,2013-05-22 10:41:00,
2013-05-22 06:46:00,50.9,48.5,29.88,North,0,0.0,0.0,92,0.00,,,0.00,WUHU216HW,2013-05-22 10:46:00,
2013-05-22 06:51:00,51.0,48.7,29.88,North,0,0.0,0.0,92,0.00,,,0.00,WUHU216HW,2013-05-22 10:51:00,
2013-05-22 06:56:00,51.2,48.9,29.89,North,0,0.0,0.0,92,0.00,,,0.00,WUHU216HW,2013-05-22 10:56:00,
2013-05-22 07:01:00,51.4,49.1,29.89,North,0,0.0,0.0,92,0.00,,,0.00,WUHU216HW,2013-05-22 11:01:00,
2013-05-22 07:06:00,51.4,48.8,29.89,NE,45,0.0,0.0,91,0.00,,,0.00,WUHU216HW,2013-05-22 11:06:00,
2013-05-22 07:11:00,51.6,49.3,29.89,NE,45,0.0,0.0,92,0.00,,,0.00,WUHU216HW,2013-05-22 11:11:00,
2013-05-22 07:16:00,51.6,49.3,29.89,NNE,23,2.2,2.2,92,0.00,,,0.00,WUHU216HW,2013-05-22 11:16:00,
2013-05-22 07:22:00,51.9,49.6,29.89,ENE,68,0.0,2.2,92,0.00,,,0.00,WUHU216HW,2013-05-22 11:22:00,
2013-05-22 07:27:00,52.1,49.5,29.89,ESE,113,0.0,1.1,91,0.00,,,0.00,WUHU216HW,2013-05-22 11:27:00,
2013-05-22 07:32:00,52.1,49.5,29.89,NE,45,0.0,0.0,91,0.00,,,0.00,WUHU216HW,2013-05-22 11:32:00,
2013-05-22 07:37:00,52.3,49.7,29.89,NE,45,0.0,0.0,91,0.00,,,0.00,WUHU216HW,2013-05-22 11:37:00,
2013-05-22 07:42:00,52.5,49.9,29.89,NNE,23,2.4,2.6,91,0.00,,,0.00,WUHU216HW,2013-05-22 11:42:00,
2013-05-22 07:47:00,52.7,50.1,29.89,North,0,4.6,4.6,91,0.00,,,0.00,WUHU216HW,2013-05-22 11:47:00,
2013-05-22 07:52:00,52.7,50.1,29.89,North,0,3.8,4.6,91,0.00,,,0.00,WUHU216HW,2013-05-22 11:52:00,
2013-05-22 07:57:00,52.8,50.2,29.89,NNE,23,0.0,4.6,91,0.00,,,0.00,WUHU216HW,2013-05-22 11:57:00,
2013-05-22 08:02:00,53.2,50.6,29.88,North,0,0.0,0.0,91,0.00,,,0.00,WUHU216HW,2013-05-22 12:02:00,
2013-05-22 08:07:00,53.4,50.8,29.89,NNW,338,0.0,0.0,91,0.00,,,0.00,WUHU216HW,2013-05-22 12:07:00,
2013-05-22 08:12:00,53.7,51.1,29.89,SSE,158,0.0,0.0,91,0.00,,,0.00,WUHU216HW,2013-05-22 12:12:00,
2013-05-22 08:18:00,53.9,51.3,29.89,SE,135,0.0,0.0,91,0.00,,,0.00,WUHU216HW,2013-05-22 12:18:00,
2013-05-22 08:23:00,53.9,51.0,29.89,SE,135,0.0,0.0,90,0.00,,,0.00,WUHU216HW,2013-05-22 12:23:00,
2013-05-22 08:28:00,54.5,51.6,29.89,NE,45,0.0,0.0,90,0.00,,,0.00,WUHU216HW,2013-05-22 12:28:00,
2013-05-22 08:33:00,54.6,51.8,29.91,SSE,158,2.6,2.6,90,0.00,,,0.00,WUHU216HW,2013-05-22 12:33:00,
2013-05-22 08:38:00,54.6,51.8,29.90,SE,135,0.6,2.6,90,0.00,,,0.00,WUHU216HW,2013-05-22 12:38:00,
2013-05-22 08:43:00,54.5,51.6,29.89,SE,135,0.0,1.5,90,0.00,,,0.00,WUHU216HW,2013-05-22 12:43:00,
2013-05-22 08:48:00,54.3,51.4,29.88,North,0,5.8,5.8,90,0.00,,,0.00,WUHU216HW,2013-05-22 12:48:00,
2013-05-22 08:53:00,53.9,51.0,29.87,WNW,293,0.0,5.8,90,0.00,,,0.00,WUHU216HW,2013-05-22 12:53:00,
2013-05-22 08:58:00,53.9,51.3,29.88,WNW,293,0.0,0.0,91,0.00,,,0.00,WUHU216HW,2013-05-22 12:58:00,
2013-05-22 09:03:00,54.3,51.7,29.86,NW,315,0.0,0.0,91,0.00,,,0.00,WUHU216HW,2013-05-22 13:03:00,
2013-05-22 09:09:00,54.5,52.1,29.88,West,270,0.0,0.0,92,0.00,,,0.00,WUHU216HW,2013-05-22 13:09:00,
2013-05-22 09:14:00,54.6,52.3,29.88,South,180,0.0,0.0,92,0.00,,,0.00,WUHU216HW,2013-05-22 13:14:00,
2013-05-22 09:19:00,54.8,52.5,29.88,SSE,158,0.0,0.0,92,0.00,,,0.00,WUHU216HW,2013-05-22 13:19:00,
2013-05-22 09:24:00,55.0,52.7,29.88,South,180,0.0,0.0,92,0.00,,,0.00,WUHU216HW,2013-05-22 13:24:00,
2013-05-22 09:29:00,55.0,52.7,29.88,South,180,0.0,0.0,92,0.00,,,0.00,WUHU216HW,2013-05-22 13:29:00,
2013-05-22 09:34:00,55.2,53.2,29.88,South,180,0.0,0.0,93,0.00,,,0.00,WUHU216HW,2013-05-22 13:34:00,
2013-05-22 09:39:00,55.2,53.2,29.88,South,180,0.0,0.0,93,0.00,,,0.00,WUHU216HW,2013-05-22 13:39:00,
2013-05-22 09:44:00,55.5,53.3,29.87,West,270,0.0,0.0,93,0.00,,,0.00,WUHU216HW,2013-05-22 13:44:00,
2013-05-22 09:49:00,55.9,53.9,29.88,West,270,0.0,0.0,93,0.00,,,0.00,WUHU216HW,2013-05-22 13:49:00,
2013-05-22 09:54:00,56.1,54.1,29.88,SSE,158,0.0,0.0,93,0.00,,,0.00,WUHU216HW,2013-05-22 13:54:00,
2013-05-22 10:00:00,56.4,54.4,29.89,SW,225,3.1,3.1,93,0.00,,,0.00,WUHU216HW,2013-05-22 14:00:00,
2013-05-22 10:05:00,56.8,54.8,29.89,SSW,203,0.0,3.1,93,0.00,,,0.00,WUHU216HW,2013-05-22 14:05:00,
2013-05-22 10:10:00,57.0,55.0,29.88,West,270,0.0,3.1,93,0.00,,,0.00,WUHU216HW,2013-05-22 14:10:00,
2013-05-22 10:15:00,57.7,55.7,29.88,South,180,0.0,0.0,93,0.00,,,0.00,WUHU216HW,2013-05-22 14:15:00,
2013-05-22 10:20:00,58.2,56.2,29.88,WSW,248,0.0,0.0,93,0.00,,,0.00,WUHU216HW,2013-05-22 14:20:00,
2013-05-22 10:25:00,59.0,56.9,29.89,SSE,158,1.7,1.7,93,0.00,,,0.00,WUHU216HW,2013-05-22 14:25:00,
2013-05-22 10:30:00,58.8,56.8,29.88,South,180,5.8,5.8,93,0.00,,,0.00,WUHU216HW,2013-05-22 14:30:00,
2013-05-22 10:35:00,58.1,56.0,29.89,South,180,4.0,5.8,93,0.00,,,0.00,WUHU216HW,2013-05-22 14:35:00,
2013-05-22 10:40:00,57.3,55.0,29.88,South,180,3.1,6.7,92,0.00,,,0.00,WUHU216HW,2013-05-22 14:40:00,
2013-05-22 10:46:00,57.0,54.7,29.88,SSE,158,9.1,9.1,92,0.00,,,0.00,WUHU216HW,2013-05-22 14:46:00,
2013-05-22 10:51:00,56.4,54.1,29.87,SSE,158,4.2,9.1,92,0.00,,,0.00,WUHU216HW,2013-05-22 14:51:00,
2013-05-22 10:56:00,55.7,53.4,29.87,SSE,158,4.0,9.1,92,0.00,,,0.00,WUHU216HW,2013-05-22 14:56:00,
2013-05-22 11:01:00,55.2,52.6,29.87,SSE,158,6.0,6.0,91,0.00,,,0.00,WUHU216HW,2013-05-22 15:01:00,
2013-05-22 11:06:00,54.8,52.2,29.87,SSE,158,4.0,6.0,91,0.00,,,0.00,WUHU216HW,2013-05-22 15:06:00,
2013-05-22 11:11:00,54.8,52.5,29.87,SSE,158,3.1,6.0,92,0.00,,,0.00,WUHU216HW,2013-05-22 15:11:00,
2013-05-22 11:16:00,55.2,52.9,29.87,SSE,158,0.0,4.4,92,0.00,,,0.00,WUHU216HW,2013-05-22 15:16:00,
2013-05-22 11:21:00,55.4,53.0,29.86,SE,135,0.0,2.4,92,0.00,,,0.00,WUHU216HW,2013-05-22 15:21:00,
2013-05-22 11:26:00,55.5,53.2,29.86,SE,135,1.5,1.7,92,0.00,,,0.00,WUHU216HW,2013-05-22 15:26:00,
2013-05-22 11:32:00,55.9,53.8,29.86,SE,135,0.0,2.2,92,0.00,,,0.00,WUHU216HW,2013-05-22 15:32:00,
2013-05-22 11:37:00,56.8,54.5,29.86,SE,135,0.0,2.2,92,0.00,,,0.00,WUHU216HW,2013-05-22 15:37:00,
2013-05-22 11:42:00,57.7,55.1,29.86,ENE,68,0.6,0.6,91,0.00,,,0.00,WUHU216HW,2013-05-22 15:42:00,
2013-05-22 11:47:00,58.2,55.4,29.86,NE,45,0.8,1.5,90,0.00,,,0.00,WUHU216HW,2013-05-22 15:47:00,
2013-05-22 11:52:00,58.2,55.0,29.86,NE,45,4.4,4.4,89,0.00,,,0.00,WUHU216HW,2013-05-22 15:52:00,
2013-05-22 11:57:00,58.1,54.5,29.86,NNE,23,6.4,6.4,88,0.00,,,0.00,WUHU216HW,2013-05-22 15:57:00,
2013-05-22 12:02:00,57.3,53.5,29.86,NE,45,2.2,6.4,87,0.00,,,0.00,WUHU216HW,2013-05-22 16:02:00,
2013-05-22 12:07:00,56.8,52.9,29.86,NNE,23,5.3,6.4,87,0.00,,,0.00,WUHU216HW,2013-05-22 16:07:00,
2013-05-22 12:12:00,55.9,52.0,29.86,NNE,23,8.9,8.9,87,0.00,,,0.00,WUHU216HW,2013-05-22 16:12:00,
2013-05-22 12:17:00,54.8,51.0,29.86,NNE,23,8.9,9.3,87,0.00,,,0.00,WUHU216HW,2013-05-22 16:17:00,
2013-05-22 12:23:00,53.9,50.4,29.86,NNE,23,9.6,9.8,88,0.00,,,0.00,WUHU216HW,2013-05-22 16:23:00,
2013-05-22 12:28:00,53.2,50.0,29.86,NNE,23,8.9,9.8,89,0.00,,,0.00,WUHU216HW,2013-05-22 16:28:00,
2013-05-22 12:33:00,53.2,50.0,29.86,NNE,23,7.8,8.9,89,0.00,,,0.00,WUHU216HW,2013-05-22 16:33:00,
2013-05-22 12:38:00,52.5,49.3,29.86,NNE,23,9.1,9.3,89,0.00,,,0.00,WUHU216HW,2013-05-22 16:38:00,
2013-05-22 12:43:00,52.3,49.4,29.86,NNE,23,6.0,9.3,90,0.00,,,0.00,WUHU216HW,2013-05-22 16:43:00,
2013-05-22 12:48:00,52.1,49.5,29.85,NNE,23,8.0,8.0,91,0.00,,,0.00,WUHU216HW,2013-05-22 16:48:00,
2013-05-22 12:53:00,51.8,49.2,29.85,NNE,23,9.1,10.7,91,0.00,,,0.00,WUHU216HW,2013-05-22 16:53:00,
2013-05-22 12:58:00,51.6,49.0,29.86,NE,45,6.2,10.7,91,0.00,,,0.00,WUHU216HW,2013-05-22 16:58:00,
2013-05-22 13:03:00,51.4,48.8,29.86,NNE,23,9.3,9.3,91,0.00,,,0.00,WUHU216HW,2013-05-22 17:03:00,
2013-05-22 13:09:00,50.9,48.5,29.85,NNE,23,10.2,10.2,92,0.00,,,0.00,WUHU216HW,2013-05-22 17:09:00,
2013-05-22 13:14:00,50.7,48.4,29.85,North,0,10.7,10.7,92,0.00,,,0.00,WUHU216HW,2013-05-22 17:14:00,
2013-05-22 13:19:00,50.5,48.5,29.85,NNE,23,11.1,11.1,93,0.00,,,0.00,WUHU216HW,2013-05-22 17:19:00,
2013-05-22 13:24:00,50.3,48.3,29.86,NNE,23,9.8,11.1,93,0.00,,,0.00,WUHU216HW,2013-05-22 17:24:00,
2013-05-22 13:29:00,50.3,48.3,29.85,NNE,23,9.6,10.2,93,0.00,,,0.00,WUHU216HW,2013-05-22 17:29:00,
2013-05-22 13:34:00,50.1,48.1,29.86,NNE,23,6.9,10.7,93,0.00,,,0.00,WUHU216HW,2013-05-22 17:34:00,
2013-05-22 13:39:00,50.1,48.1,29.86,NNE,23,6.0,10.7,93,0.00,,,0.00,WUHU216HW,2013-05-22 17:39:00,
2013-05-22 13:44:00,50.1,48.1,29.86,NE,45,6.0,7.6,93,0.00,,,0.00,WUHU216HW,2013-05-22 17:44:00,
2013-05-22 13:49:00,50.1,48.4,29.86,NNE,23,4.9,7.6,94,0.00,,,0.00,WUHU216HW,2013-05-22 17:49:00,
2013-05-22 13:55:00,50.1,48.4,29.86,NNE,23,5.3,6.0,94,0.00,,,0.00,WUHU216HW,2013-05-22 17:55:00,
2013-05-22 14:00:00,50.1,48.4,29.85,NE,45,4.6,7.1,94,0.00,,,0.00,WUHU216HW,2013-05-22 18:00:00,
2013-05-22 14:05:00,50.5,48.8,29.85,North,0,6.7,7.1,94,0.00,,,0.00,WUHU216HW,2013-05-22 18:05:00,
2013-05-22 14:10:00,50.7,48.9,29.86,North,0,5.1,6.7,94,0.00,,,0.00,WUHU216HW,2013-05-22 18:10:00,
2013-05-22 14:15:00,50.9,49.1,29.85,NNE,23,2.0,8.7,94,0.00,,,0.00,WUHU216HW,2013-05-22 18:15:00,
2013-05-22 14:20:00,51.0,49.3,29.84,North,0,4.4,8.7,94,0.00,,,0.00,WUHU216HW,2013-05-22 18:20:00,
2013-05-22 14:25:00,51.2,49.5,29.84,NNE,23,10.7,10.7,94,0.00,,,0.00,WUHU216HW,2013-05-22 18:25:00,
2013-05-22 14:30:00,51.0,49.3,29.85,NNE,23,10.7,10.7,94,0.00,,,0.00,WUHU216HW,2013-05-22 18:30:00,
2013-05-22 14:35:00,51.0,49.3,29.85,NNE,23,7.6,10.7,94,0.00,,,0.00,WUHU216HW,2013-05-22 18:35:00,
2013-05-22 14:40:00,50.7,48.9,29.86,NNE,23,10.2,10.7,94,0.00,,,0.00,WUHU216HW,2013-05-22 18:40:00,
2013-05-22 14:45:00,50.7,48.9,29.86,NNE,23,9.3,10.2,94,0.00,,,0.00,WUHU216HW,2013-05-22 18:45:00,
2013-05-22 14:51:00,51.0,49.3,29.85,North,0,12.0,12.0,94,0.00,,,0.00,WUHU216HW,2013-05-22 18:51:00,
2013-05-22 14:56:00,51.4,49.7,29.86,NNE,23,11.1,12.0,94,0.00,,,0.00,WUHU216HW,2013-05-22 18:56:00,
2013-05-22 15:01:00,51.6,49.8,29.85,NNE,23,10.0,11.1,94,0.00,,,0.00,WUHU216HW,2013-05-22 19:01:00,
2013-05-22 15:06:00,51.8,50.0,29.85,NNE,23,11.6,11.6,94,0.00,,,0.00,WUHU216HW,2013-05-22 19:06:00,
2013-05-22 15:11:00,52.1,50.7,29.85,NNE,23,12.9,12.9,95,0.00,,,0.00,WUHU216HW,2013-05-22 19:11:00,
2013-05-22 15:16:00,52.3,50.9,29.85,North,0,10.5,12.9,95,0.00,,,0.00,WUHU216HW,2013-05-22 19:16:00,
2013-05-22 15:21:00,52.3,50.9,29.86,North,0,13.6,17.2,95,0.00,,,0.00,WUHU216HW,2013-05-22 19:21:00,
2013-05-22 15:26:00,52.5,51.0,29.85,North,0,13.4,17.2,95,0.00,,,0.00,WUHU216HW,2013-05-22 19:26:00,
2013-05-22 15:31:00,52.5,51.0,29.86,NE,45,9.1,14.3,95,0.00,,,0.00,WUHU216HW,2013-05-22 19:31:00,
2013-05-22 15:36:00,52.3,50.9,29.85,North,0,11.4,16.3,95,0.00,,,0.00,WUHU216HW,2013-05-22 19:36:00,
2013-05-22 15:42:00,52.3,50.9,29.86,North,0,11.4,16.3,95,0.00,,,0.00,WUHU216HW,2013-05-22 19:42:00,
2013-05-22 15:47:00,52.5,51.0,29.86,NNE,23,9.8,13.1,95,0.00,,,0.00,WUHU216HW,2013-05-22 19:47:00,
2013-05-22 15:52:00,52.8,51.4,29.85,NNE,23,4.2,12.9,95,0.00,,,0.00,WUHU216HW,2013-05-22 19:52:00,
2013-05-22 15:57:00,53.4,51.9,29.85,NNE,23,14.0,14.0,95,0.00,,,0.00,WUHU216HW,2013-05-22 19:57:00,
2013-05-22 16:02:00,53.4,51.9,29.85,NNE,23,9.6,14.0,95,0.00,,,0.00,WUHU216HW,2013-05-22 20:02:00,
2013-05-22 16:07:00,53.4,51.9,29.84,NNE,23,11.4,11.8,95,0.00,,,0.00,WUHU216HW,2013-05-22 20:07:00,
2013-05-22 16:12:00,53.2,51.8,29.84,NNE,23,10.5,11.4,95,0.00,,,0.00,WUHU216HW,2013-05-22 20:12:00,
2013-05-22 16:17:00,53.4,51.9,29.84,North,0,12.3,12.3,95,0.00,,,0.00,WUHU216HW,2013-05-22 20:17:00,
2013-05-22 16:22:00,53.2,51.8,29.83,North,0,9.3,12.3,95,0.00,,,0.00,WUHU216HW,2013-05-22 20:22:00,
2013-05-22 16:27:00,52.8,51.4,29.83,NNE,23,17.0,17.0,95,0.00,,,0.00,WUHU216HW,2013-05-22 20:27:00,
2013-05-22 16:32:00,52.3,50.9,29.82,North,0,11.4,17.0,95,0.00,,,0.00,WUHU216HW,2013-05-22 20:32:00,
2013-05-22 16:37:00,51.9,50.5,29.83,North,0,3.8,17.0,95,0.00,,,0.00,WUHU216HW,2013-05-22 20:37:00,
2013-05-22 16:43:00,51.9,50.5,29.83,North,0,9.6,11.4,95,0.00,,,0.00,WUHU216HW,2013-05-22 20:43:00,
2013-05-22 16:48:00,51.9,50.5,29.83,North,0,9.6,11.8,95,0.00,,,0.00,WUHU216HW,2013-05-22 20:48:00,
2013-05-22 16:53:00,51.9,50.5,29.84,North,0,2.4,11.8,95,0.00,,,0.00,WUHU216HW,2013-05-22 20:53:00,
2013-05-22 16:58:00,52.3,50.9,29.84,WSW,248,0.0,6.9,95,0.00,,,0.00,WUHU216HW,2013-05-22 20:58:00,
2013-05-22 17:03:00,52.8,51.4,29.82,NNE,23,6.0,6.0,95,0.00,,,0.00,WUHU216HW,2013-05-22 21:03:00,
2013-05-22 17:08:00,53.2,51.8,29.81,North,0,9.1,10.2,95,0.00,,,0.00,WUHU216HW,2013-05-22 21:08:00,
2013-05-22 17:13:00,53.4,51.9,29.81,North,0,3.8,10.2,95,0.00,,,0.00,WUHU216HW,2013-05-22 21:13:00,
2013-05-22 17:18:00,53.7,52.3,29.81,North,0,1.5,9.1,95,0.00,,,0.00,WUHU216HW,2013-05-22 21:18:00,
2013-05-22 17:23:00,54.1,52.8,29.81,North,0,1.7,8.0,95,0.00,,,0.00,WUHU216HW,2013-05-22 21:23:00,
2013-05-22 17:29:00,54.6,53.2,29.81,NNE,23,2.9,3.8,95,0.00,,,0.00,WUHU216HW,2013-05-22 21:29:00,
2013-05-22 17:34:00,54.6,53.2,29.81,NNE,23,7.3,7.3,95,0.00,,,0.00,WUHU216HW,2013-05-22 21:34:00,
2013-05-22 17:39:00,53.9,52.5,29.81,North,0,9.1,9.8,95,0.00,,,0.00,WUHU216HW,2013-05-22 21:39:00,
2013-05-22 17:44:00,53.4,51.9,29.81,NNE,23,10.2,10.9,95,0.00,,,0.00,WUHU216HW,2013-05-22 21:44:00,
2013-05-22 17:49:00,52.5,51.0,29.81,NNE,23,9.3,12.3,95,0.00,,,0.00,WUHU216HW,2013-05-22 21:49:00,
2013-05-22 17:54:00,52.1,50.7,29.81,NE,45,14.5,14.5,95,0.00,,,0.00,WUHU216HW,2013-05-22 21:54:00,
2013-05-22 17:59:00,51.6,49.8,29.81,NNE,23,12.3,14.5,94,0.00,,,0.00,WUHU216HW,2013-05-22 21:59:00,
2013-05-22 18:04:00,51.0,49.3,29.81,NNE,23,13.4,14.5,94,0.00,,,0.00,WUHU216HW,2013-05-22 22:04:00,
2013-05-22 18:09:00,50.9,49.1,29.82,NNE,23,17.2,17.2,94,0.00,,,0.00,WUHU216HW,2013-05-22 22:09:00,
2013-05-22 18:14:00,50.7,49.2,29.82,NNE,23,12.3,17.2,95,0.00,,,0.00,WUHU216HW,2013-05-22 22:14:00,
2013-05-22 18:19:00,50.3,48.9,29.83,North,0,7.6,17.2,95,0.00,,,0.00,WUHU216HW,2013-05-22 22:19:00,
2013-05-22 18:25:00,50.1,48.7,29.82,North,0,11.6,11.6,95,0.00,,,0.00,WUHU216HW,2013-05-22 22:25:00,
2013-05-22 18:30:00,50.3,48.9,29.84,NNE,23,16.5,16.5,95,0.00,,,0.00,WUHU216HW,2013-05-22 22:30:00,
2013-05-22 18:35:00,50.1,48.7,29.84,NNE,23,15.2,17.2,95,0.00,,,0.00,WUHU216HW,2013-05-22 22:35:00,
2013-05-22 18:40:00,49.8,48.0,29.84,NNE,23,13.1,17.2,94,0.00,,,0.00,WUHU216HW,2013-05-22 22:40:00,
2013-05-22 18:45:00,49.6,47.9,29.85,NNE,23,15.2,15.8,94,0.00,,,0.00,WUHU216HW,2013-05-22 22:45:00,
2013-05-22 18:50:00,49.4,47.7,29.84,NNE,23,12.9,15.8,94,0.00,,,0.00,WUHU216HW,2013-05-22 22:50:00,
2013-05-22 18:55:00,49.6,48.2,29.84,North,0,21.2,21.2,95,0.00,,,0.00,WUHU216HW,2013-05-22 22:55:00,
2013-05-22 19:00:00,49.8,48.3,29.83,North,0,18.7,23.2,95,0.00,,,0.00,WUHU216HW,2013-05-22 23:00:00,
2013-05-22 19:05:00,49.8,48.3,29.84,WSW,248,0.0,23.2,95,0.00,,,0.00,WUHU216HW,2013-05-22 23:05:00,
2013-05-22 19:10:00,49.8,48.3,29.84,NW,315,2.2,7.6,95,0.00,,,0.00,WUHU216HW,2013-05-22 23:10:00,
2013-05-22 19:15:00,50.1,48.7,29.83,North,0,5.1,5.1,95,0.00,,,0.00,WUHU216HW,2013-05-22 23:15:00,
2013-05-22 19:20:00,50.5,49.4,29.84,North,0,2.4,5.1,95,0.00,,,0.00,WUHU216HW,2013-05-22 23:20:00,
2013-05-22 19:25:00,51.2,49.8,29.84,North,0,6.7,6.7,95,0.00,,,0.00,WUHU216HW,2013-05-22 23:25:00,
2013-05-22 19:31:00,51.6,50.1,29.84,NNE,23,16.1,16.1,95,0.00,,,0.00,WUHU216HW,2013-05-22 23:31:00,
2013-05-22 19:36:00,51.8,50.3,29.84,NNW,338,6.2,16.1,95,0.00,,,0.00,WUHU216HW,2013-05-22 23:36:00,
2013-05-22 19:41:00,51.6,50.1,29.84,NNW,338,9.3,14.9,95,0.00,,,0.00,WUHU216HW,2013-05-22 23:41:00,
2013-05-22 19:46:00,51.6,50.1,29.85,North,0,15.2,15.2,95,0.00,,,0.00,WUHU216HW,2013-05-22 23:46:00,
2013-05-22 19:51:00,51.6,50.0,29.84,NNE,23,7.8,15.2,95,0.00,,,0.00,WUHU216HW,2013-05-22 23:51:00,
2013-05-22 19:56:00,51.4,50.0,29.85,NNE,23,11.6,15.2,95,0.00,,,0.00,WUHU216HW,2013-05-22 23:56:00,
2013-05-22 20:01:00,51.4,50.0,29.85,NNE,23,14.5,14.5,95,0.00,,,0.00,WUHU216HW,2013-05-23 00:01:00,
2013-05-22 20:06:00,51.6,50.1,29.85,North,0,8.5,14.5,95,0.00,,,0.00,WUHU216HW,2013-05-23 00:06:00,
2013-05-22 20:11:00,51.6,50.1,29.84,North,0,9.8,12.0,95,0.00,,,0.00,WUHU216HW,2013-05-23 00:11:00,
2013-05-22 20:16:00,52.1,50.5,29.84,North,0,12.0,16.1,95,0.00,,,0.00,WUHU216HW,2013-05-23 00:16:00,
2013-05-22 20:21:00,52.5,51.0,29.84,NNE,23,19.6,21.9,95,0.00,,,0.00,WUHU216HW,2013-05-23 00:21:00,
2013-05-22 20:26:00,52.3,50.9,29.84,NNE,23,19.6,21.9,95,0.00,,,0.00,WUHU216HW,2013-05-23 00:26:00,
2013-05-22 20:31:00,51.8,50.3,29.84,NNE,23,19.9,19.9,95,0.00,,,0.00,WUHU216HW,2013-05-23 00:31:00,
2013-05-22 20:37:00,51.6,50.1,29.84,NNE,23,17.4,19.9,95,0.00,,,0.00,WUHU216HW,2013-05-23 00:37:00,
2013-05-22 20:42:00,51.6,50.1,29.84,NNE,23,12.7,19.9,95,0.00,,,0.00,WUHU216HW,2013-05-23 00:42:00,
2013-05-22 20:47:00,51.6,50.1,29.85,NNE,23,13.4,17.8,95,0.00,,,0.00,WUHU216HW,2013-05-23 00:47:00,
2013-05-22 20:52:00,51.6,50.1,29.84,NNE,23,18.3,18.3,95,0.00,,,0.00,WUHU216HW,2013-05-23 00:52:00,
2013-05-22 20:57:00,51.6,50.1,29.84,North,0,19.6,19.6,95,0.00,,,0.00,WUHU216HW,2013-05-23 00:57:00,
2013-05-22 21:02:00,51.6,50.1,29.84,NNE,23,11.6,19.6,95,0.00,,,0.00,WUHU216HW,2013-05-23 01:02:00,
2013-05-22 21:07:00,51.4,50.0,29.85,NNE,23,15.6,19.6,95,0.00,,,0.00,WUHU216HW,2013-05-23 01:07:00,
2013-05-22 21:12:00,51.2,49.8,29.85,NNE,23,13.6,15.6,95,0.00,,,0.00,WUHU216HW,2013-05-23 01:12:00,
2013-05-22 21:17:00,51.2,49.8,29.86,NNE,23,10.5,15.6,95,0.00,,,0.00,WUHU216HW,2013-05-23 01:17:00,
2013-05-22 21:23:00,51.6,50.1,29.85,NNE,23,13.1,13.6,95,0.00,,,0.00,WUHU216HW,2013-05-23 01:23:00,
2013-05-22 21:28:00,51.8,50.3,29.86,NE,45,17.2,17.2,95,0.00,,,0.00,WUHU216HW,2013-05-23 01:28:00,
2013-05-22 21:33:00,51.6,50.1,29.86,NNE,23,9.6,17.2,95,0.00,,,0.00,WUHU216HW,2013-05-23 01:33:00,
2013-05-22 21:38:00,51.6,50.1,29.86,NNE,23,14.3,15.4,95,0.00,,,0.00,WUHU216HW,2013-05-23 01:38:00,
2013-05-22 21:43:00,51.4,50.0,29.86,NNE,23,15.6,15.6,95,0.00,,,0.00,WUHU216HW,2013-05-23 01:43:00,
2013-05-22 21:48:00,51.6,50.1,29.86,NNE,23,12.9,15.6,95,0.00,,,0.00,WUHU216HW,2013-05-23 01:48:00,
2013-05-22 21:53:00,51.4,50.0,29.86,NNE,23,15.8,17.2,95,0.00,,,0.00,WUHU216HW,2013-05-23 01:53:00,
2013-05-22 21:58:00,51.4,50.0,29.86,NE,45,15.8,17.2,95,0.00,,,0.00,WUHU216HW,2013-05-23 01:58:00,
2013-05-22 22:03:00,51.4,50.0,29.86,NNE,23,9.1,15.8,95,0.00,,,0.00,WUHU216HW,2013-05-23 02:03:00,
2013-05-22 22:08:00,51.0,49.6,29.86,North,0,6.2,9.1,95,0.00,,,0.00,WUHU216HW,2013-05-23 02:08:00,
2013-05-22 22:14:00,50.9,49.4,29.87,NE,45,1.5,6.2,95,0.00,,,0.00,WUHU216HW,2013-05-23 02:14:00,
2013-05-22 22:19:00,50.7,49.5,29.87,NNE,23,6.0,6.2,96,0.00,,,0.00,WUHU216HW,2013-05-23 02:19:00,
2013-05-22 22:24:00,50.9,49.7,29.86,NE,45,11.1,12.3,96,0.00,,,0.00,WUHU216HW,2013-05-23 02:24:00,
2013-05-22 22:29:00,51.0,49.6,29.86,NNE,23,14.5,14.5,95,0.00,,,0.00,WUHU216HW,2013-05-23 02:29:00,
2013-05-22 22:34:00,51.0,49.6,29.86,North,0,16.5,16.5,95,0.00,,,0.00,WUHU216HW,2013-05-23 02:34:00,
2013-05-22 22:39:00,50.7,49.2,29.86,North,0,11.1,16.5,95,0.00,,,0.00,WUHU216HW,2013-05-23 02:39:00,
2013-05-22 22:44:00,50.9,49.4,29.86,NNE,23,12.0,16.5,95,0.00,,,0.00,WUHU216HW,2013-05-23 02:44:00,
2013-05-22 22:49:00,50.9,49.4,29.86,NNE,23,10.5,14.7,95,0.00,,,0.00,WUHU216HW,2013-05-23 02:49:00,
2013-05-22 22:54:00,50.7,49.2,29.86,NNE,23,8.9,15.2,95,0.00,,,0.00,WUHU216HW,2013-05-23 02:54:00,
2013-05-22 23:00:00,50.9,49.4,29.87,NNE,23,9.6,15.2,95,0.00,,,0.00,WUHU216HW,2013-05-23 03:00:00,
2013-05-22 23:05:00,50.9,49.4,29.87,North,0,7.6,12.5,95,0.00,,,0.00,WUHU216HW,2013-05-23 03:05:00,
2013-05-22 23:10:00,50.9,49.4,29.87,North,0,14.3,14.3,95,0.00,,,0.00,WUHU216HW,2013-05-23 03:10:00,
2013-05-22 23:15:00,51.0,49.6,29.86,North,0,15.4,15.4,95,0.00,,,0.00,WUHU216HW,2013-05-23 03:15:00,
2013-05-22 23:20:00,51.0,49.6,29.87,North,0,8.5,15.4,95,0.00,,,0.00,WUHU216HW,2013-05-23 03:20:00,
2013-05-22 23:25:00,50.9,49.4,29.87,NW,315,1.7,15.4,95,0.00,,,0.00,WUHU216HW,2013-05-23 03:25:00,
2013-05-22 23:30:00,50.9,49.4,29.87,NNE,23,8.9,14.3,95,0.00,,,0.00,WUHU216HW,2013-05-23 03:30:00,
2013-05-22 23:35:00,50.7,49.2,29.87,North,0,2.2,8.9,95,0.00,,,0.00,WUHU216HW,2013-05-23 03:35:00,
2013-05-22 23:40:00,50.7,49.2,29.87,NW,315,4.6,8.9,95,0.00,,,0.00,WUHU216HW,2013-05-23 03:40:00,
2013-05-22 23:46:00,51.0,49.6,29.87,North,0,4.6,10.0,95,0.00,,,0.00,WUHU216HW,2013-05-23 03:46:00,
2013-05-22 23:51:00,51.0,49.6,29.87,NNE,23,13.1,13.1,95,0.00,,,0.00,WUHU216HW,2013-05-23 03:51:00,
2013-05-22 23:56:00,51.2,49.8,29.87,NNW,338,4.0,13.1,95,0.00,,,0.00,WUHU216HW,2013-05-23 03:56:00,